sensor_id;sensor_type;location;lat;lon;timestamp;P1;durP1;ratioP1;P2;durP2;ratioP2
4486;SDS011;2256;48.740;9.106;2023-03-12T00:01:11;6.43;;;2.10;;
4486;SDS011;2256;48.740;9.106;2023-03-12T00:03:39;6.55;;;2.65;;
4486;SDS011;2256;48.740;9.106;2023-03-12T00:06:06;6.50;;;2.08;;
4486;SDS011;2256;48.740;9.106;2023-03-12T00:08:33;5.93;;;2.35;;
4486;SDS011;2256;48.740;9.106;2023-03-12T00:11:04;6.88;;;2.75;;
4486;SDS011;2256;48.740;9.106;2023-03-12T00:13:33;7.43;;;2.58;;
4486;SDS011;2256;48.740;9.106;2023-03-12T00:16:04;4.30;;;2.38;;
4486;SDS011;2256;48.740;9.106;2023-03-12T00:18:32;5.90;;;2.45;;
4486;SDS011;2256;48.740;9.106;2023-03-12T00:20:59;3.40;;;2.03;;
4486;SDS011;2256;48.740;9.106;2023-03-12T00:23:26;4.00;;;2.22;;
4486;SDS011;2256;48.740;9.106;2023-03-12T00:25:53;5.93;;;2.20;;
4486;SDS011;2256;48.740;9.106;2023-03-12T00:28:24;4.20;;;2.00;;
4486;SDS011;2256;48.740;9.106;2023-03-12T00:30:52;8.60;;;2.53;;
4486;SDS011;2256;48.740;9.106;2023-03-12T00:33:18;7.47;;;2.50;;
4486;SDS011;2256;48.740;9.106;2023-03-12T00:35:45;6.32;;;2.42;;
4486;SDS011;2256;48.740;9.106;2023-03-12T00:38:12;5.82;;;2.15;;
4486;SDS011;2256;48.740;9.106;2023-03-12T00:40:39;5.20;;;2.30;;
4486;SDS011;2256;48.740;9.106;2023-03-12T00:43:05;5.43;;;2.63;;
4486;SDS011;2256;48.740;9.106;2023-03-12T00:45:32;8.27;;;2.33;;
4486;SDS011;2256;48.740;9.106;2023-03-12T00:48:00;6.10;;;2.45;;
4486;SDS011;2256;48.740;9.106;2023-03-12T00:50:27;11.70;;;2.90;;
4486;SDS011;2256;48.740;9.106;2023-03-12T00:52:54;6.25;;;3.22;;
4486;SDS011;2256;48.740;9.106;2023-03-12T00:55:21;5.70;;;2.95;;
4486;SDS011;2256;48.740;9.106;2023-03-12T00:57:47;5.45;;;2.85;;
4486;SDS011;2256;48.740;9.106;2023-03-12T01:00:14;7.10;;;3.00;;
4486;SDS011;2256;48.740;9.106;2023-03-12T01:02:42;12.02;;;3.60;;
4486;SDS011;2256;48.740;9.106;2023-03-12T01:05:10;9.27;;;3.80;;
4486;SDS011;2256;48.740;9.106;2023-03-12T01:07:38;4.25;;;3.08;;
4486;SDS011;2256;48.740;9.106;2023-03-12T01:10:05;9.05;;;4.00;;
4486;SDS011;2256;48.740;9.106;2023-03-12T01:12:33;18.95;;;3.33;;
4486;SDS011;2256;48.740;9.106;2023-03-12T01:15:01;6.70;;;4.15;;
4486;SDS011;2256;48.740;9.106;2023-03-12T01:17:28;9.25;;;3.92;;
4486;SDS011;2256;48.740;9.106;2023-03-12T01:19:54;11.57;;;4.70;;
4486;SDS011;2256;48.740;9.106;2023-03-12T01:22:22;10.15;;;4.15;;
4486;SDS011;2256;48.740;9.106;2023-03-12T01:24:49;11.40;;;3.60;;
4486;SDS011;2256;48.740;9.106;2023-03-12T01:27:16;15.63;;;4.45;;
4486;SDS011;2256;48.740;9.106;2023-03-12T01:29:44;12.52;;;4.80;;
4486;SDS011;2256;48.740;9.106;2023-03-12T01:32:11;11.10;;;4.05;;
4486;SDS011;2256;48.740;9.106;2023-03-12T01:34:38;14.13;;;4.05;;
4486;SDS011;2256;48.740;9.106;2023-03-12T01:37:05;14.55;;;4.07;;
4486;SDS011;2256;48.740;9.106;2023-03-12T01:39:33;9.50;;;4.13;;
4486;SDS011;2256;48.740;9.106;2023-03-12T01:42:00;12.95;;;4.93;;
4486;SDS011;2256;48.740;9.106;2023-03-12T01:44:27;34.80;;;4.40;;
4486;SDS011;2256;48.740;9.106;2023-03-12T01:46:54;11.13;;;3.92;;
4486;SDS011;2256;48.740;9.106;2023-03-12T01:49:22;13.50;;;3.83;;
4486;SDS011;2256;48.740;9.106;2023-03-12T01:51:53;10.65;;;4.20;;
4486;SDS011;2256;48.740;9.106;2023-03-12T01:54:24;7.70;;;3.92;;
4486;SDS011;2256;48.740;9.106;2023-03-12T01:56:56;8.55;;;4.70;;
4486;SDS011;2256;48.740;9.106;2023-03-12T01:59:23;12.02;;;4.47;;
4486;SDS011;2256;48.740;9.106;2023-03-12T02:01:55;13.27;;;3.78;;
4486;SDS011;2256;48.740;9.106;2023-03-12T02:04:23;10.05;;;4.40;;
4486;SDS011;2256;48.740;9.106;2023-03-12T02:06:52;10.43;;;4.32;;
4486;SDS011;2256;48.740;9.106;2023-03-12T02:09:24;10.20;;;4.05;;
4486;SDS011;2256;48.740;9.106;2023-03-12T02:11:51;12.07;;;4.10;;
4486;SDS011;2256;48.740;9.106;2023-03-12T02:14:19;17.58;;;3.83;;
4486;SDS011;2256;48.740;9.106;2023-03-12T02:16:47;13.18;;;4.80;;
4486;SDS011;2256;48.740;9.106;2023-03-12T02:19:15;7.68;;;3.63;;
4486;SDS011;2256;48.740;9.106;2023-03-12T02:21:48;20.45;;;4.95;;
4486;SDS011;2256;48.740;9.106;2023-03-12T02:24:16;10.88;;;4.13;;
4486;SDS011;2256;48.740;9.106;2023-03-12T02:26:53;9.95;;;3.58;;
4486;SDS011;2256;48.740;9.106;2023-03-12T02:29:20;12.23;;;4.20;;
4486;SDS011;2256;48.740;9.106;2023-03-12T02:31:51;7.63;;;3.72;;
4486;SDS011;2256;48.740;9.106;2023-03-12T02:34:20;7.72;;;3.90;;
4486;SDS011;2256;48.740;9.106;2023-03-12T02:36:47;6.85;;;3.75;;
4486;SDS011;2256;48.740;9.106;2023-03-12T02:39:14;5.82;;;3.30;;
4486;SDS011;2256;48.740;9.106;2023-03-12T02:41:42;8.35;;;4.40;;
4486;SDS011;2256;48.740;9.106;2023-03-12T02:44:13;8.75;;;3.85;;
4486;SDS011;2256;48.740;9.106;2023-03-12T02:46:43;10.63;;;3.97;;
4486;SDS011;2256;48.740;9.106;2023-03-12T02:49:12;13.10;;;4.47;;
4486;SDS011;2256;48.740;9.106;2023-03-12T02:51:40;18.02;;;4.78;;
4486;SDS011;2256;48.740;9.106;2023-03-12T02:54:07;4.65;;;3.13;;
4486;SDS011;2256;48.740;9.106;2023-03-12T02:56:35;9.73;;;4.20;;
4486;SDS011;2256;48.740;9.106;2023-03-12T02:59:02;19.95;;;4.97;;
4486;SDS011;2256;48.740;9.106;2023-03-12T03:01:31;15.82;;;4.93;;
4486;SDS011;2256;48.740;9.106;2023-03-12T03:03:58;12.10;;;4.97;;
4486;SDS011;2256;48.740;9.106;2023-03-12T03:06:29;14.88;;;4.47;;
4486;SDS011;2256;48.740;9.106;2023-03-12T03:08:56;10.48;;;4.10;;
4486;SDS011;2256;48.740;9.106;2023-03-12T03:11:23;11.73;;;4.50;;
4486;SDS011;2256;48.740;9.106;2023-03-12T03:13:50;10.50;;;4.15;;
4486;SDS011;2256;48.740;9.106;2023-03-12T03:16:17;8.93;;;4.60;;
4486;SDS011;2256;48.740;9.106;2023-03-12T03:18:45;12.63;;;4.40;;
4486;SDS011;2256;48.740;9.106;2023-03-12T03:21:13;14.10;;;4.78;;
4486;SDS011;2256;48.740;9.106;2023-03-12T03:23:41;14.30;;;4.68;;
4486;SDS011;2256;48.740;9.106;2023-03-12T03:26:08;10.48;;;4.15;;
4486;SDS011;2256;48.740;9.106;2023-03-12T03:28:35;10.38;;;5.00;;
4486;SDS011;2256;48.740;9.106;2023-03-12T03:31:02;12.80;;;4.55;;
4486;SDS011;2256;48.740;9.106;2023-03-12T03:33:30;8.57;;;4.13;;
4486;SDS011;2256;48.740;9.106;2023-03-12T03:36:00;8.93;;;3.63;;
4486;SDS011;2256;48.740;9.106;2023-03-12T03:38:27;8.52;;;4.65;;
4486;SDS011;2256;48.740;9.106;2023-03-12T03:40:55;9.05;;;4.47;;
4486;SDS011;2256;48.740;9.106;2023-03-12T03:43:22;6.70;;;3.70;;
4486;SDS011;2256;48.740;9.106;2023-03-12T03:45:55;9.30;;;4.30;;
4486;SDS011;2256;48.740;9.106;2023-03-12T03:48:22;9.00;;;4.10;;
4486;SDS011;2256;48.740;9.106;2023-03-12T03:50:50;6.57;;;3.97;;
4486;SDS011;2256;48.740;9.106;2023-03-12T03:53:18;4.80;;;3.30;;
4486;SDS011;2256;48.740;9.106;2023-03-12T03:55:46;9.95;;;4.25;;
4486;SDS011;2256;48.740;9.106;2023-03-12T03:58:12;9.90;;;4.22;;
4486;SDS011;2256;48.740;9.106;2023-03-12T04:00:39;13.45;;;4.55;;
4486;SDS011;2256;48.740;9.106;2023-03-12T04:03:08;7.32;;;3.85;;
4486;SDS011;2256;48.740;9.106;2023-03-12T04:05:35;8.40;;;4.47;;
4486;SDS011;2256;48.740;9.106;2023-03-12T04:08:02;8.52;;;4.25;;
4486;SDS011;2256;48.740;9.106;2023-03-12T04:10:31;9.02;;;4.22;;
4486;SDS011;2256;48.740;9.106;2023-03-12T04:12:57;6.85;;;4.35;;
4486;SDS011;2256;48.740;9.106;2023-03-12T04:15:24;9.15;;;3.88;;
4486;SDS011;2256;48.740;9.106;2023-03-12T04:17:51;5.18;;;3.85;;
4486;SDS011;2256;48.740;9.106;2023-03-12T04:20:18;11.63;;;4.05;;
4486;SDS011;2256;48.740;9.106;2023-03-12T04:22:44;8.85;;;4.10;;
4486;SDS011;2256;48.740;9.106;2023-03-12T04:25:11;11.68;;;4.05;;
4486;SDS011;2256;48.740;9.106;2023-03-12T04:27:39;10.77;;;4.53;;
4486;SDS011;2256;48.740;9.106;2023-03-12T04:30:07;10.55;;;3.80;;
4486;SDS011;2256;48.740;9.106;2023-03-12T04:32:34;11.25;;;3.60;;
4486;SDS011;2256;48.740;9.106;2023-03-12T04:35:01;6.30;;;3.65;;
4486;SDS011;2256;48.740;9.106;2023-03-12T04:37:30;8.60;;;4.25;;
4486;SDS011;2256;48.740;9.106;2023-03-12T04:39:57;9.23;;;3.42;;
4486;SDS011;2256;48.740;9.106;2023-03-12T04:42:24;18.15;;;4.70;;
4486;SDS011;2256;48.740;9.106;2023-03-12T04:44:52;7.40;;;4.00;;
4486;SDS011;2256;48.740;9.106;2023-03-12T04:47:19;15.13;;;4.05;;
4486;SDS011;2256;48.740;9.106;2023-03-12T04:49:46;11.20;;;3.75;;
4486;SDS011;2256;48.740;9.106;2023-03-12T04:52:13;6.40;;;3.92;;
4486;SDS011;2256;48.740;9.106;2023-03-12T04:54:41;11.43;;;4.57;;
4486;SDS011;2256;48.740;9.106;2023-03-12T04:57:08;10.85;;;3.70;;
4486;SDS011;2256;48.740;9.106;2023-03-12T04:59:35;12.00;;;4.43;;
4486;SDS011;2256;48.740;9.106;2023-03-12T05:02:03;8.32;;;4.28;;
4486;SDS011;2256;48.740;9.106;2023-03-12T05:04:30;7.03;;;4.13;;
4486;SDS011;2256;48.740;9.106;2023-03-12T05:06:57;14.50;;;5.20;;
4486;SDS011;2256;48.740;9.106;2023-03-12T05:09:24;7.07;;;4.30;;
4486;SDS011;2256;48.740;9.106;2023-03-12T05:11:50;11.88;;;4.35;;
4486;SDS011;2256;48.740;9.106;2023-03-12T05:14:17;10.02;;;4.47;;
4486;SDS011;2256;48.740;9.106;2023-03-12T05:16:44;11.60;;;4.57;;
4486;SDS011;2256;48.740;9.106;2023-03-12T05:19:12;11.98;;;4.60;;
4486;SDS011;2256;48.740;9.106;2023-03-12T05:21:39;7.80;;;4.25;;
4486;SDS011;2256;48.740;9.106;2023-03-12T05:24:07;7.55;;;3.92;;
4486;SDS011;2256;48.740;9.106;2023-03-12T05:26:34;9.73;;;4.47;;
4486;SDS011;2256;48.740;9.106;2023-03-12T05:29:01;12.70;;;4.80;;
4486;SDS011;2256;48.740;9.106;2023-03-12T05:31:28;6.07;;;3.55;;
4486;SDS011;2256;48.740;9.106;2023-03-12T05:33:58;10.07;;;4.25;;
4486;SDS011;2256;48.740;9.106;2023-03-12T05:36:27;7.97;;;4.25;;
4486;SDS011;2256;48.740;9.106;2023-03-12T05:38:54;10.13;;;4.47;;
4486;SDS011;2256;48.740;9.106;2023-03-12T05:41:21;11.07;;;4.68;;
4486;SDS011;2256;48.740;9.106;2023-03-12T05:43:50;8.05;;;4.95;;
4486;SDS011;2256;48.740;9.106;2023-03-12T05:46:18;8.93;;;4.32;;
4486;SDS011;2256;48.740;9.106;2023-03-12T05:48:44;5.85;;;4.00;;
4486;SDS011;2256;48.740;9.106;2023-03-12T05:51:11;7.30;;;3.90;;
4486;SDS011;2256;48.740;9.106;2023-03-12T05:53:40;10.10;;;4.10;;
4486;SDS011;2256;48.740;9.106;2023-03-12T05:56:07;9.95;;;4.65;;
4486;SDS011;2256;48.740;9.106;2023-03-12T05:58:38;7.88;;;4.65;;
4486;SDS011;2256;48.740;9.106;2023-03-12T06:01:10;9.73;;;4.13;;
4486;SDS011;2256;48.740;9.106;2023-03-12T06:03:37;13.07;;;4.55;;
4486;SDS011;2256;48.740;9.106;2023-03-12T06:06:04;9.57;;;4.70;;
4486;SDS011;2256;48.740;9.106;2023-03-12T06:08:31;11.23;;;5.05;;
4486;SDS011;2256;48.740;9.106;2023-03-12T06:10:59;11.55;;;5.00;;
4486;SDS011;2256;48.740;9.106;2023-03-12T06:13:25;9.82;;;4.95;;
4486;SDS011;2256;48.740;9.106;2023-03-12T06:15:52;20.80;;;5.50;;
4486;SDS011;2256;48.740;9.106;2023-03-12T06:18:19;12.70;;;5.35;;
4486;SDS011;2256;48.740;9.106;2023-03-12T06:20:46;12.93;;;5.25;;
4486;SDS011;2256;48.740;9.106;2023-03-12T06:23:12;14.90;;;4.90;;
4486;SDS011;2256;48.740;9.106;2023-03-12T06:25:39;9.48;;;4.93;;
4486;SDS011;2256;48.740;9.106;2023-03-12T06:28:10;16.00;;;5.70;;
4486;SDS011;2256;48.740;9.106;2023-03-12T06:30:37;14.75;;;5.35;;
4486;SDS011;2256;48.740;9.106;2023-03-12T06:33:04;10.32;;;4.50;;
4486;SDS011;2256;48.740;9.106;2023-03-12T06:35:33;9.07;;;5.05;;
4486;SDS011;2256;48.740;9.106;2023-03-12T06:37:59;12.32;;;4.95;;
4486;SDS011;2256;48.740;9.106;2023-03-12T06:40:26;12.25;;;5.30;;
4486;SDS011;2256;48.740;9.106;2023-03-12T06:42:53;17.80;;;5.45;;
4486;SDS011;2256;48.740;9.106;2023-03-12T06:45:21;11.65;;;6.35;;
4486;SDS011;2256;48.740;9.106;2023-03-12T06:47:48;16.80;;;5.30;;
4486;SDS011;2256;48.740;9.106;2023-03-12T06:50:15;7.95;;;5.20;;
4486;SDS011;2256;48.740;9.106;2023-03-12T06:52:42;17.73;;;6.35;;
4486;SDS011;2256;48.740;9.106;2023-03-12T06:55:09;11.23;;;5.68;;
4486;SDS011;2256;48.740;9.106;2023-03-12T06:57:35;8.45;;;5.20;;
4486;SDS011;2256;48.740;9.106;2023-03-12T07:00:03;14.05;;;5.68;;
4486;SDS011;2256;48.740;9.106;2023-03-12T07:02:33;16.23;;;5.80;;
4486;SDS011;2256;48.740;9.106;2023-03-12T07:05:00;12.65;;;5.45;;
4486;SDS011;2256;48.740;9.106;2023-03-12T07:07:26;13.15;;;6.93;;
4486;SDS011;2256;48.740;9.106;2023-03-12T07:09:53;12.35;;;6.60;;
4486;SDS011;2256;48.740;9.106;2023-03-12T07:12:20;19.73;;;6.25;;
4486;SDS011;2256;48.740;9.106;2023-03-12T07:14:47;12.77;;;5.82;;
4486;SDS011;2256;48.740;9.106;2023-03-12T07:17:13;12.85;;;6.03;;
4486;SDS011;2256;48.740;9.106;2023-03-12T07:19:41;11.77;;;6.10;;
4486;SDS011;2256;48.740;9.106;2023-03-12T07:22:08;15.65;;;5.90;;
4486;SDS011;2256;48.740;9.106;2023-03-12T07:24:35;17.35;;;6.70;;
4486;SDS011;2256;48.740;9.106;2023-03-12T07:27:02;16.70;;;6.20;;
4486;SDS011;2256;48.740;9.106;2023-03-12T07:29:29;10.30;;;5.40;;
4486;SDS011;2256;48.740;9.106;2023-03-12T07:31:55;9.40;;;5.65;;
4486;SDS011;2256;48.740;9.106;2023-03-12T07:34:22;12.00;;;5.13;;
4486;SDS011;2256;48.740;9.106;2023-03-12T07:36:50;11.43;;;5.13;;
4486;SDS011;2256;48.740;9.106;2023-03-12T07:39:18;11.00;;;5.50;;
4486;SDS011;2256;48.740;9.106;2023-03-12T07:41:45;6.43;;;4.75;;
4486;SDS011;2256;48.740;9.106;2023-03-12T07:44:12;6.13;;;4.22;;
4486;SDS011;2256;48.740;9.106;2023-03-12T07:46:39;7.93;;;5.05;;
4486;SDS011;2256;48.740;9.106;2023-03-12T07:49:06;10.27;;;5.15;;
4486;SDS011;2256;48.740;9.106;2023-03-12T07:51:32;7.75;;;4.55;;
4486;SDS011;2256;48.740;9.106;2023-03-12T07:54:00;9.05;;;4.72;;
4486;SDS011;2256;48.740;9.106;2023-03-12T07:56:27;7.55;;;4.35;;
4486;SDS011;2256;48.740;9.106;2023-03-12T07:58:54;7.38;;;3.83;;
4486;SDS011;2256;48.740;9.106;2023-03-12T08:01:22;8.63;;;4.18;;
4486;SDS011;2256;48.740;9.106;2023-03-12T08:03:49;9.00;;;4.40;;
4486;SDS011;2256;48.740;9.106;2023-03-12T08:06:16;9.25;;;4.70;;
4486;SDS011;2256;48.740;9.106;2023-03-12T08:08:42;9.63;;;3.50;;
4486;SDS011;2256;48.740;9.106;2023-03-12T08:11:10;14.55;;;4.43;;
4486;SDS011;2256;48.740;9.106;2023-03-12T08:13:37;6.03;;;4.40;;
4486;SDS011;2256;48.740;9.106;2023-03-12T08:16:04;5.65;;;4.45;;
4486;SDS011;2256;48.740;9.106;2023-03-12T08:18:31;5.72;;;3.38;;
4486;SDS011;2256;48.740;9.106;2023-03-12T08:20:57;15.68;;;4.15;;
4486;SDS011;2256;48.740;9.106;2023-03-12T08:23:24;8.48;;;4.30;;
4486;SDS011;2256;48.740;9.106;2023-03-12T08:25:52;6.00;;;3.90;;
4486;SDS011;2256;48.740;9.106;2023-03-12T08:28:21;9.35;;;4.95;;
4486;SDS011;2256;48.740;9.106;2023-03-12T08:30:50;12.23;;;4.43;;
4486;SDS011;2256;48.740;9.106;2023-03-12T08:33:18;8.82;;;5.05;;
4486;SDS011;2256;48.740;9.106;2023-03-12T08:35:45;15.10;;;5.30;;
4486;SDS011;2256;48.740;9.106;2023-03-12T08:38:12;18.02;;;4.85;;
4486;SDS011;2256;48.740;9.106;2023-03-12T08:40:39;12.57;;;5.90;;
4486;SDS011;2256;48.740;9.106;2023-03-12T08:43:05;9.45;;;5.00;;
4486;SDS011;2256;48.740;9.106;2023-03-12T08:45:34;11.23;;;5.50;;
4486;SDS011;2256;48.740;9.106;2023-03-12T08:48:01;9.73;;;5.35;;
4486;SDS011;2256;48.740;9.106;2023-03-12T08:50:28;19.10;;;5.55;;
4486;SDS011;2256;48.740;9.106;2023-03-12T08:52:56;11.73;;;6.10;;
4486;SDS011;2256;48.740;9.106;2023-03-12T08:55:23;8.57;;;5.75;;
4486;SDS011;2256;48.740;9.106;2023-03-12T08:57:50;9.85;;;5.68;;
4486;SDS011;2256;48.740;9.106;2023-03-12T09:00:17;8.68;;;5.45;;
4486;SDS011;2256;48.740;9.106;2023-03-12T09:02:45;12.55;;;6.00;;
4486;SDS011;2256;48.740;9.106;2023-03-12T09:05:14;18.50;;;6.30;;
4486;SDS011;2256;48.740;9.106;2023-03-12T09:07:41;10.27;;;5.30;;
4486;SDS011;2256;48.740;9.106;2023-03-12T09:10:08;9.73;;;5.57;;
4486;SDS011;2256;48.740;9.106;2023-03-12T09:12:36;15.30;;;5.90;;
4486;SDS011;2256;48.740;9.106;2023-03-12T09:15:03;9.77;;;5.03;;
4486;SDS011;2256;48.740;9.106;2023-03-12T09:17:31;11.20;;;6.07;;
4486;SDS011;2256;48.740;9.106;2023-03-12T09:19:59;10.40;;;5.50;;
4486;SDS011;2256;48.740;9.106;2023-03-12T09:22:27;11.00;;;5.63;;
4486;SDS011;2256;48.740;9.106;2023-03-12T09:24:54;8.90;;;5.57;;
4486;SDS011;2256;48.740;9.106;2023-03-12T09:27:21;10.20;;;5.97;;
4486;SDS011;2256;48.740;9.106;2023-03-12T09:29:48;11.50;;;5.53;;
4486;SDS011;2256;48.740;9.106;2023-03-12T09:32:15;10.80;;;5.27;;
4486;SDS011;2256;48.740;9.106;2023-03-12T09:34:42;15.27;;;4.20;;
4486;SDS011;2256;48.740;9.106;2023-03-12T09:37:10;9.83;;;4.70;;
4486;SDS011;2256;48.740;9.106;2023-03-12T09:39:37;7.90;;;4.57;;
4486;SDS011;2256;48.740;9.106;2023-03-12T09:42:04;8.63;;;4.40;;
4486;SDS011;2256;48.740;9.106;2023-03-12T09:44:37;5.93;;;4.10;;
4486;SDS011;2256;48.740;9.106;2023-03-12T09:47:08;7.90;;;3.63;;
4486;SDS011;2256;48.740;9.106;2023-03-12T09:49:42;7.63;;;4.10;;
4486;SDS011;2256;48.740;9.106;2023-03-12T09:52:17;4.03;;;3.20;;
4486;SDS011;2256;48.740;9.106;2023-03-12T09:54:51;9.37;;;4.43;;
4486;SDS011;2256;48.740;9.106;2023-03-12T09:57:22;14.73;;;4.20;;
4486;SDS011;2256;48.740;9.106;2023-03-12T09:59:52;7.03;;;4.20;;
4486;SDS011;2256;48.740;9.106;2023-03-12T10:02:28;6.00;;;3.50;;
4486;SDS011;2256;48.740;9.106;2023-03-12T10:05:18;6.70;;;3.80;;
4486;SDS011;2256;48.740;9.106;2023-03-12T10:07:59;10.23;;;3.93;;
4486;SDS011;2256;48.740;9.106;2023-03-12T10:10:39;6.17;;;3.80;;
4486;SDS011;2256;48.740;9.106;2023-03-12T10:13:20;9.30;;;3.50;;
4486;SDS011;2256;48.740;9.106;2023-03-12T10:16:02;15.53;;;3.80;;
4486;SDS011;2256;48.740;9.106;2023-03-12T10:18:37;17.27;;;3.40;;
4486;SDS011;2256;48.740;9.106;2023-03-12T10:21:18;5.80;;;3.53;;
4486;SDS011;2256;48.740;9.106;2023-03-12T10:23:51;6.50;;;3.20;;
4486;SDS011;2256;48.740;9.106;2023-03-12T10:26:28;4.83;;;2.70;;
4486;SDS011;2256;48.740;9.106;2023-03-12T10:28:59;5.50;;;3.20;;
4486;SDS011;2256;48.740;9.106;2023-03-12T10:31:30;5.20;;;3.03;;
4486;SDS011;2256;48.740;9.106;2023-03-12T10:34:01;3.67;;;2.90;;
4486;SDS011;2256;48.740;9.106;2023-03-12T10:36:33;6.07;;;3.03;;
4486;SDS011;2256;48.740;9.106;2023-03-12T10:39:05;12.00;;;3.33;;
4486;SDS011;2256;48.740;9.106;2023-03-12T10:41:40;4.67;;;3.10;;
4486;SDS011;2256;48.740;9.106;2023-03-12T10:44:10;3.90;;;2.80;;
4486;SDS011;2256;48.740;9.106;2023-03-12T10:46:46;8.80;;;3.33;;
4486;SDS011;2256;48.740;9.106;2023-03-12T10:49:30;9.90;;;3.30;;
4486;SDS011;2256;48.740;9.106;2023-03-12T10:51:59;6.87;;;3.30;;
4486;SDS011;2256;48.740;9.106;2023-03-12T10:54:31;4.43;;;2.73;;
4486;SDS011;2256;48.740;9.106;2023-03-12T10:57:00;3.90;;;2.60;;
4486;SDS011;2256;48.740;9.106;2023-03-12T10:59:28;6.90;;;2.60;;
4486;SDS011;2256;48.740;9.106;2023-03-12T11:01:57;6.23;;;3.37;;
4486;SDS011;2256;48.740;9.106;2023-03-12T11:04:26;4.20;;;2.67;;
4486;SDS011;2256;48.740;9.106;2023-03-12T11:07:17;3.17;;;2.20;;
4486;SDS011;2256;48.740;9.106;2023-03-12T11:10:02;4.73;;;1.77;;
4486;SDS011;2256;48.740;9.106;2023-03-12T11:12:40;2.23;;;1.67;;
4486;SDS011;2256;48.740;9.106;2023-03-12T11:15:19;4.00;;;1.90;;
4486;SDS011;2256;48.740;9.106;2023-03-12T11:17:47;2.70;;;1.60;;
4486;SDS011;2256;48.740;9.106;2023-03-12T11:20:22;1.43;;;1.33;;
4486;SDS011;2256;48.740;9.106;2023-03-12T11:22:51;1.63;;;1.50;;
4486;SDS011;2256;48.740;9.106;2023-03-12T11:25:22;1.53;;;1.40;;
4486;SDS011;2256;48.740;9.106;2023-03-12T11:27:52;1.90;;;1.23;;
4486;SDS011;2256;48.740;9.106;2023-03-12T11:30:25;1.60;;;1.03;;
4486;SDS011;2256;48.740;9.106;2023-03-12T11:32:56;7.37;;;1.37;;
4486;SDS011;2256;48.740;9.106;2023-03-12T11:35:29;1.47;;;1.00;;
4486;SDS011;2256;48.740;9.106;2023-03-12T11:38:06;2.20;;;1.30;;
4486;SDS011;2256;48.740;9.106;2023-03-12T11:40:52;2.67;;;1.20;;
4486;SDS011;2256;48.740;9.106;2023-03-12T11:43:37;1.30;;;1.20;;
4486;SDS011;2256;48.740;9.106;2023-03-12T11:46:17;1.60;;;1.20;;
4486;SDS011;2256;48.740;9.106;2023-03-12T11:48:55;2.60;;;1.27;;
4486;SDS011;2256;48.740;9.106;2023-03-12T11:51:32;1.90;;;1.23;;
4486;SDS011;2256;48.740;9.106;2023-03-12T11:54:22;1.20;;;1.10;;
4486;SDS011;2256;48.740;9.106;2023-03-12T11:56:58;1.23;;;1.10;;
4486;SDS011;2256;48.740;9.106;2023-03-12T11:59:34;3.23;;;1.20;;
4486;SDS011;2256;48.740;9.106;2023-03-12T12:02:12;4.30;;;1.37;;
4486;SDS011;2256;48.740;9.106;2023-03-12T12:05:02;1.57;;;1.20;;
4486;SDS011;2256;48.740;9.106;2023-03-12T12:07:49;2.20;;;1.40;;
4486;SDS011;2256;48.740;9.106;2023-03-12T12:10:27;6.23;;;1.47;;
4486;SDS011;2256;48.740;9.106;2023-03-12T12:13:01;4.60;;;1.20;;
4486;SDS011;2256;48.740;9.106;2023-03-12T12:15:35;5.53;;;1.50;;
4486;SDS011;2256;48.740;9.106;2023-03-12T12:18:13;2.37;;;1.40;;
4486;SDS011;2256;48.740;9.106;2023-03-12T12:20:55;3.50;;;1.23;;
4486;SDS011;2256;48.740;9.106;2023-03-12T12:23:33;2.00;;;1.20;;
4486;SDS011;2256;48.740;9.106;2023-03-12T12:26:12;6.77;;;1.57;;
4486;SDS011;2256;48.740;9.106;2023-03-12T12:28:45;4.97;;;1.80;;
4486;SDS011;2256;48.740;9.106;2023-03-12T12:31:31;4.17;;;1.43;;
4486;SDS011;2256;48.740;9.106;2023-03-12T12:37:37;12.77;;;1.57;;
4486;SDS011;2256;48.740;9.106;2023-03-12T12:40:15;7.70;;;1.80;;
4486;SDS011;2256;48.740;9.106;2023-03-12T12:42:48;4.57;;;1.90;;
4486;SDS011;2256;48.740;9.106;2023-03-12T12:45:24;11.57;;;1.90;;
4486;SDS011;2256;48.740;9.106;2023-03-12T12:47:54;6.03;;;1.83;;
4486;SDS011;2256;48.740;9.106;2023-03-12T12:50:26;5.03;;;2.07;;
4486;SDS011;2256;48.740;9.106;2023-03-12T12:52:58;6.17;;;2.53;;
4486;SDS011;2256;48.740;9.106;2023-03-12T12:55:32;13.73;;;1.90;;
4486;SDS011;2256;48.740;9.106;2023-03-12T12:58:03;5.70;;;2.00;;
4486;SDS011;2256;48.740;9.106;2023-03-12T13:00:48;6.10;;;1.60;;
4486;SDS011;2256;48.740;9.106;2023-03-12T13:03:20;24.10;;;1.90;;
4486;SDS011;2256;48.740;9.106;2023-03-12T13:05:55;6.50;;;1.90;;
4486;SDS011;2256;48.740;9.106;2023-03-12T13:08:31;4.00;;;2.10;;
4486;SDS011;2256;48.740;9.106;2023-03-12T13:11:23;12.03;;;2.10;;
4486;SDS011;2256;48.740;9.106;2023-03-12T13:14:12;6.70;;;2.20;;
4486;SDS011;2256;48.740;9.106;2023-03-12T13:16:49;6.47;;;1.60;;
4486;SDS011;2256;48.740;9.106;2023-03-12T13:19:33;6.27;;;2.10;;
4486;SDS011;2256;48.740;9.106;2023-03-12T13:22:08;5.10;;;1.90;;
4486;SDS011;2256;48.740;9.106;2023-03-12T13:24:42;5.43;;;1.80;;
4486;SDS011;2256;48.740;9.106;2023-03-12T13:27:13;5.77;;;1.53;;
4486;SDS011;2256;48.740;9.106;2023-03-12T13:29:45;2.23;;;1.50;;
4486;SDS011;2256;48.740;9.106;2023-03-12T13:32:36;7.50;;;1.60;;
4486;SDS011;2256;48.740;9.106;2023-03-12T13:35:27;5.07;;;1.70;;
4486;SDS011;2256;48.740;9.106;2023-03-12T13:37:58;5.03;;;1.50;;
4486;SDS011;2256;48.740;9.106;2023-03-12T13:46:25;12.97;;;2.50;;
4486;SDS011;2256;48.740;9.106;2023-03-12T13:49:02;5.83;;;1.70;;
4486;SDS011;2256;48.740;9.106;2023-03-12T13:51:31;5.13;;;1.43;;
4486;SDS011;2256;48.740;9.106;2023-03-12T13:53:58;3.03;;;1.60;;
4486;SDS011;2256;48.740;9.106;2023-03-12T13:56:28;3.23;;;1.50;;
4486;SDS011;2256;48.740;9.106;2023-03-12T13:58:56;7.67;;;1.77;;
4486;SDS011;2256;48.740;9.106;2023-03-12T14:01:25;3.93;;;1.30;;
4486;SDS011;2256;48.740;9.106;2023-03-12T14:03:55;6.60;;;1.90;;
4486;SDS011;2256;48.740;9.106;2023-03-12T14:06:26;7.93;;;2.03;;
4486;SDS011;2256;48.740;9.106;2023-03-12T14:09:02;2.87;;;1.73;;
4486;SDS011;2256;48.740;9.106;2023-03-12T14:11:40;7.20;;;1.70;;
4486;SDS011;2256;48.740;9.106;2023-03-12T14:14:20;3.90;;;1.40;;
4486;SDS011;2256;48.740;9.106;2023-03-12T14:16:57;1.83;;;1.53;;
4486;SDS011;2256;48.740;9.106;2023-03-12T14:19:27;3.43;;;1.40;;
4486;SDS011;2256;48.740;9.106;2023-03-12T14:21:59;5.33;;;1.67;;
4486;SDS011;2256;48.740;9.106;2023-03-12T14:24:31;2.37;;;1.50;;
4486;SDS011;2256;48.740;9.106;2023-03-12T14:27:01;4.30;;;1.50;;
4486;SDS011;2256;48.740;9.106;2023-03-12T14:29:30;3.93;;;1.50;;
4486;SDS011;2256;48.740;9.106;2023-03-12T14:32:03;7.17;;;1.70;;
4486;SDS011;2256;48.740;9.106;2023-03-12T14:34:32;9.10;;;1.50;;
4486;SDS011;2256;48.740;9.106;2023-03-12T14:37:08;7.30;;;2.30;;
4486;SDS011;2256;48.740;9.106;2023-03-12T14:39:41;3.63;;;1.40;;
4486;SDS011;2256;48.740;9.106;2023-03-12T14:42:17;3.90;;;1.50;;
4486;SDS011;2256;48.740;9.106;2023-03-12T14:44:54;6.93;;;1.40;;
4486;SDS011;2256;48.740;9.106;2023-03-12T14:47:29;3.70;;;1.60;;
4486;SDS011;2256;48.740;9.106;2023-03-12T14:50:04;3.07;;;1.47;;
4486;SDS011;2256;48.740;9.106;2023-03-12T14:52:34;8.00;;;1.30;;
4486;SDS011;2256;48.740;9.106;2023-03-12T14:55:02;3.30;;;1.50;;
4486;SDS011;2256;48.740;9.106;2023-03-12T14:57:33;2.13;;;1.40;;
4486;SDS011;2256;48.740;9.106;2023-03-12T15:00:00;3.87;;;1.20;;
4486;SDS011;2256;48.740;9.106;2023-03-12T15:02:27;4.03;;;1.40;;
4486;SDS011;2256;48.740;9.106;2023-03-12T15:04:56;6.20;;;2.23;;
4486;SDS011;2256;48.740;9.106;2023-03-12T15:07:28;1.73;;;1.20;;
4486;SDS011;2256;48.740;9.106;2023-03-12T15:10:05;5.70;;;1.63;;
4486;SDS011;2256;48.740;9.106;2023-03-12T15:12:46;2.93;;;1.57;;
4486;SDS011;2256;48.740;9.106;2023-03-12T15:15:22;5.10;;;1.77;;
4486;SDS011;2256;48.740;9.106;2023-03-12T15:18:06;12.57;;;1.90;;
4486;SDS011;2256;48.740;9.106;2023-03-12T15:20:38;6.43;;;2.00;;
4486;SDS011;2256;48.740;9.106;2023-03-12T15:23:06;3.43;;;1.60;;
4486;SDS011;2256;48.740;9.106;2023-03-12T15:25:36;8.57;;;1.57;;
4486;SDS011;2256;48.740;9.106;2023-03-12T15:28:05;4.30;;;1.50;;
4486;SDS011;2256;48.740;9.106;2023-03-12T15:30:36;8.43;;;1.83;;
4486;SDS011;2256;48.740;9.106;2023-03-12T15:33:05;7.70;;;1.80;;
4486;SDS011;2256;48.740;9.106;2023-03-12T15:35:33;6.00;;;1.80;;
4486;SDS011;2256;48.740;9.106;2023-03-12T15:38:00;6.40;;;1.50;;